Time;durP1;ratioP1;P1;durP2;ratioP2;P2;SDS_P1;SDS_P2;PMS_P1;PMS_P2;Temp;Humidity;BMP_temperature;BMP_pressure;BME280_temperature;BME280_humidity;BME280_pressure;Samples;Min_cycle;Max_cycle;Signal;HPM_P1;HPM_P2
2022/03/10 00:00:06;;;;;;;24.45;19.23;;;-1.00;99.90;;;;;;4991795;28;20411;-82
2022/03/10 00:02:32;;;;;;;22.93;18.50;;;-1.00;99.90;;;;;;4974992;28;20385;-82
2022/03/10 00:04:58;;;;;;;21.87;17.67;;;-0.90;99.90;;;;;;4992868;28;20409;-80
2022/03/10 00:07:23;;;;;;;22.30;18.03;;;-0.90;99.90;;;;;;4992337;28;20415;-80
2022/03/10 00:09:49;;;;;;;22.10;16.90;;;-0.90;99.90;;;;;;4993819;28;20388;-80
2022/03/10 00:12:16;;;;;;;19.87;17.07;;;-0.90;99.90;;;;;;4974700;28;20507;-82
2022/03/10 00:14:41;;;;;;;21.27;17.33;;;-1.10;99.90;;;;;;4991605;28;20455;-81
2022/03/10 00:17:07;;;;;;;22.30;18.52;;;-1.10;99.90;;;;;;4992352;28;20883;-82
2022/03/10 00:19:32;;;;;;;25.10;19.80;;;-1.10;99.90;;;;;;4992632;28;20381;-82
2022/03/10 00:21:59;;;;;;;25.80;20.13;;;-1.20;99.90;;;;;;4974808;28;20493;-81
2022/03/10 00:24:24;;;;;;;22.45;18.85;;;-1.20;99.90;;;;;;4974599;28;20748;-80
2022/03/10 00:26:50;;;;;;;26.75;20.13;;;-1.20;99.90;;;;;;4974407;28;20424;-82
2022/03/10 00:29:15;;;;;;;26.85;21.55;;;-1.20;99.90;;;;;;4992306;28;20751;-80
2022/03/10 00:31:41;;;;;;;29.77;23.55;;;-1.30;99.90;;;;;;4992155;28;20388;-81
2022/03/10 00:34:08;;;;;;;28.73;22.70;;;-1.20;99.90;;;;;;4992102;28;20381;-79
2022/03/10 00:36:34;;;;;;;27.52;21.73;;;-1.20;99.90;;;;;;4990870;28;20381;-79
2022/03/10 00:38:59;;;;;;;27.42;21.70;;;-1.20;99.90;;;;;;4992416;28;20384;-80
2022/03/10 00:41:25;;;;;;;27.55;22.02;;;-1.20;99.90;;;;;;4974647;28;20958;-80
2022/03/10 00:43:51;;;;;;;29.15;22.67;;;-1.20;99.90;;;;;;4992162;28;20396;-81
2022/03/10 00:46:16;;;;;;;27.13;21.58;;;-1.20;99.90;;;;;;4991862;28;20487;-81
2022/03/10 00:48:42;;;;;;;28.15;22.50;;;-1.20;99.90;;;;;;4992228;28;20439;-80
2022/03/10 00:51:08;;;;;;;27.77;21.75;;;-1.20;99.90;;;;;;4992053;28;20400;-81
2022/03/10 00:53:34;;;;;;;25.90;20.58;;;-1.20;99.90;;;;;;4992720;28;20405;-80
2022/03/10 00:56:00;;;;;;;25.60;20.23;;;-1.30;99.90;;;;;;4974625;28;20389;-80
2022/03/10 00:58:25;;;;;;;25.50;21.40;;;-1.30;99.90;;;;;;4975035;28;20396;-80
2022/03/10 01:00:51;;;;;;;26.48;21.67;;;-1.40;99.90;;;;;;4991049;28;20407;-81
2022/03/10 01:03:18;;;;;;;25.97;20.53;;;-1.40;99.90;;;;;;4974403;28;20385;-80
2022/03/10 01:05:44;;;;;;;27.90;21.45;;;-1.50;99.90;;;;;;4991777;28;20408;-80
2022/03/10 01:08:10;;;;;;;25.92;20.92;;;-1.50;99.90;;;;;;4991983;28;20370;-80
2022/03/10 01:10:35;;;;;;;22.70;19.27;;;-1.60;99.90;;;;;;4975966;28;20380;-80
2022/03/10 01:13:02;;;;;;;25.23;20.48;;;-1.60;99.90;;;;;;4996423;28;20399;-80
2022/03/10 01:15:28;;;;;;;26.67;20.15;;;-1.60;99.90;;;;;;4996079;28;20438;-80
2022/03/10 01:17:55;;;;;;;26.48;20.77;;;-1.70;99.90;;;;;;4996016;28;20468;-80
2022/03/10 01:20:23;;;;;;;27.73;20.77;;;-1.70;99.90;;;;;;4995831;28;20388;-80
2022/03/10 01:22:51;;;;;;;27.58;21.13;;;;;;;;;;4978258;28;20388;-80
2022/03/10 01:25:20;;;;;;;30.55;23.48;;;;;;;;;;4995709;28;20893;-80
2022/03/10 01:27:47;;;;;;;26.60;21.77;;;;;;;;;;4995446;28;20439;-80
2022/03/10 01:30:14;;;;;;;29.30;22.75;;;;;;;;;;4996207;28;20381;-79
2022/03/10 01:32:41;;;;;;;26.80;21.50;;;;;;;;;;4996512;28;20391;-79
2022/03/10 01:35:08;;;;;;;27.42;22.08;;;;;;;;;;4979567;28;20369;-79
2022/03/10 01:37:37;;;;;;;28.83;23.20;;;;;;;;;;4998949;28;20416;-79
2022/03/10 01:40:14;;;;;;;27.92;21.42;;;;;;;;;;4996751;28;20376;-79
2022/03/10 01:42:43;;;;;;;28.55;23.75;;;;;;;;;;4995713;28;20767;-79
2022/03/10 01:45:12;;;;;;;31.98;25.15;;;;;;;;;;4995869;28;20403;-80
2022/03/10 01:47:42;;;;;;;30.77;24.37;;;;;;;;;;4995918;28;20416;-80
2022/03/10 01:50:10;;;;;;;29.52;23.45;;;;;;;;;;4995812;28;20494;-79
2022/03/10 01:52:38;;;;;;;31.15;23.88;;;;;;;;;;4978072;28;20471;-80
2022/03/10 01:55:07;;;;;;;30.92;23.65;;;;;;;;;;4995876;28;20762;-80
2022/03/10 01:57:35;;;;;;;29.60;22.52;;;;;;;;;;4996714;28;20405;-80
2022/03/10 02:00:03;;;;;;;29.55;23.25;;;;;;;;;;4996345;28;20456;-79
2022/03/10 02:02:31;;;;;;;29.45;22.73;;;;;;;;;;4968658;28;20489;-80
2022/03/10 02:04:59;;;;;;;29.13;23.40;;;;;;;;;;4978352;28;20844;-80
2022/03/10 02:10:17;;;;;;;36.37;26.90;;;;;;;;;;4996402;28;20471;-80
2022/03/10 02:12:44;;;;;;;34.58;25.63;;;;;;;;;;4996121;28;20886;-79
2022/03/10 02:17:59;;;;;;;29.77;23.50;;;;;;;;;;4991399;28;20379;-79
2022/03/10 02:20:25;;;;;;;27.67;23.35;;;;;;;;;;4995475;28;20381;-79
2022/03/10 02:22:52;;;;;;;28.85;23.98;;;;;;;;;;4996347;28;20870;-78
2022/03/10 02:25:20;;;;;;;29.20;24.55;;;;;;;;;;4974675;28;20410;-79
2022/03/10 02:27:50;;;;;;;32.75;25.23;;;;;;;;;;4999107;28;20751;-79
2022/03/10 02:30:16;;;;;;;30.40;24.37;;;;;;;;;;4969332;28;20491;-79
2022/03/10 02:32:42;;;;;;;33.55;23.85;;;;;;;;;;4998696;28;20400;-79
2022/03/10 02:35:09;;;;;;;29.77;24.15;;;;;;;;;;4998496;28;20388;-79
2022/03/10 02:37:35;;;;;;;32.97;24.77;;;;;;;;;;5000616;28;20393;-78
2022/03/10 02:40:01;;;;;;;35.35;27.42;;;;;;;;;;5001846;28;20404;-79
2022/03/10 02:42:30;;;;;;;37.25;27.13;;;;;;;;;;4996993;28;20847;-80
2022/03/10 02:44:56;;;;;;;35.72;26.85;;;;;;;;;;4979409;28;20416;-79
2022/03/10 02:47:22;;;;;;;39.47;28.90;;;;;;;;;;4998959;28;20980;-78
2022/03/10 02:49:48;;;;;;;38.90;28.77;;;;;;;;;;4999245;28;20381;-78
2022/03/10 02:52:14;;;;;;;38.38;29.75;;;;;;;;;;4998246;28;20791;-79
2022/03/10 02:54:42;;;;;;;37.42;28.50;;;;;;;;;;4998438;28;20373;-78
2022/03/10 02:57:08;;;;;;;37.90;29.05;;;;;;;;;;4982137;28;20456;-79
2022/03/10 02:59:34;;;;;;;38.67;29.10;;;;;;;;;;5000640;28;20449;-79
2022/03/10 03:02:02;;;;;;;42.70;30.80;;;;;;;;;;4975989;28;20872;-78
2022/03/10 03:04:28;;;;;;;39.17;30.85;;;;;;;;;;4980173;28;20860;-79
2022/03/10 03:06:54;;;;;;;42.42;32.13;;;;;;;;;;4996211;28;20506;-79
2022/03/10 03:09:20;;;;;;;38.28;29.42;;;;;;;;;;4996495;28;20376;-79
2022/03/10 03:11:46;;;;;;;43.67;31.55;;;;;;;;;;4978537;28;20488;-80
2022/03/10 03:14:14;;;;;;;41.92;31.50;;;;;;;;;;4978989;28;20787;-80
2022/03/10 03:16:40;;;;;;;43.78;32.63;;;;;;;;;;4998904;28;20400;-80
2022/03/10 03:19:06;;;;;;;46.05;32.28;;;;;;;;;;4999779;28;20388;-79
2022/03/10 03:21:32;;;;;;;45.25;33.25;;;;;;;;;;4982246;28;20377;-79
2022/03/10 03:23:58;;;;;;;44.85;32.75;;;;;;;;;;4996544;28;20439;-79
2022/03/10 03:26:24;;;;;;;42.80;30.92;;;;;;;;;;4995835;28;20408;-79
2022/03/10 03:28:50;;;;;;;41.88;31.95;;;;;;;;;;4994947;28;20729;-80
2022/03/10 03:31:16;;;;;;;45.03;32.40;;;;;;;;;;4995685;28;20388;-80
2022/03/10 03:33:43;;;;;;;45.00;32.70;;;;;;;;;;4976807;28;20913;-80
2022/03/10 03:36:09;;;;;;;45.00;33.05;;;;;;;;;;4999236;28;20460;-80
2022/03/10 03:38:36;;;;;;;46.43;33.87;;;;;;;;;;4980742;28;20417;-80
2022/03/10 03:41:02;;;;;;;44.90;33.67;;;;;;;;;;4980271;28;20464;-80
2022/03/10 03:43:28;;;;;;;47.05;33.15;;;;;;;;;;4997020;28;20759;-79
2022/03/10 03:45:56;;;;;;;43.35;33.05;;;;;;;;;;4978273;28;20481;-80
2022/03/10 03:48:22;;;;;;;43.13;32.27;;;;;;;;;;4978197;28;20397;-80
2022/03/10 03:50:48;;;;;;;45.70;33.45;;;;;;;;;;4978793;28;20739;-80
2022/03/10 03:53:14;;;;;;;44.50;32.83;;;;;;;;;;4977888;28;20404;-80
2022/03/10 03:55:43;;;;;;;44.83;32.92;;;;;;;;;;4994922;28;20880;-80
2022/03/10 03:58:11;;;;;;;42.33;32.40;;;;;;;;;;4966966;28;20406;-80
2022/03/10 04:00:37;;;;;;;44.75;33.83;;;;;;;;;;4975392;28;20406;-80
2022/03/10 04:03:07;;;;;;;45.53;34.40;;;;;;;;;;4994301;28;20456;-80
2022/03/10 04:05:33;;;;;;;47.95;34.35;;;;;;;;;;4976533;28;20408;-81
2022/03/10 04:07:59;;;;;;;48.20;35.03;;;;;;;;;;4994263;28;20412;-81
2022/03/10 04:10:25;;;;;;;47.65;35.67;;;;;;;;;;4993533;28;20385;-81
2022/03/10 04:12:51;;;;;;;47.60;34.53;;;;;;;;;;4994148;28;20388;-81
2022/03/10 04:15:17;;;;;;;47.97;35.00;;;;;;;;;;4993872;28;20389;-81
2022/03/10 04:17:43;;;;;;;45.65;35.00;;;;;;;;;;4976905;28;20468;-82
2022/03/10 04:20:13;;;;;;;47.42;33.92;;;;;;;;;;4994064;28;20413;-82
2022/03/10 04:22:39;;;;;;;49.38;36.83;;;;;;;;;;4977435;28;20393;-82
2022/03/10 04:25:05;;;;;;;59.10;36.43;;;;;;;;;;4995034;28;20421;-81
2022/03/10 04:27:31;;;;;;;51.67;35.95;;;;;;;;;;4992976;28;20401;-82
2022/03/10 04:29:57;;;;;;;50.27;36.27;;;;;;;;;;4977998;28;20467;-82
2022/03/10 04:32:24;;;;;;;45.63;34.58;;;;;;;;;;4993009;28;20408;-81
2022/03/10 04:34:50;;;;;;;52.10;35.78;;;;;;;;;;4976017;28;20373;-82
2022/03/10 04:37:16;;;;;;;71.83;35.10;;;;;;;;;;4976283;28;20385;-82
2022/03/10 04:39:42;;;;;;;56.75;34.70;;;;;;;;;;4994699;28;20389;-81
2022/03/10 04:42:08;;;;;;;47.40;34.47;;;;;;;;;;4994578;28;20878;-81
2022/03/10 04:44:34;;;;;;;47.33;35.17;;;;;;;;;;4995535;28;20417;-82
2022/03/10 04:47:00;;;;;;;47.90;34.75;;;;;;;;;;4995631;28;20819;-81
2022/03/10 04:49:26;;;;;;;45.10;32.75;;;;;;;;;;4974352;28;20413;-81
2022/03/10 04:51:52;;;;;;;55.22;35.88;;;;;;;;;;4994698;28;20393;-81
2022/03/10 04:54:18;;;;;;;50.20;33.43;;;;;;;;;;4995258;28;20468;-82
2022/03/10 04:56:44;;;;;;;49.33;36.00;;;;;;;;;;4979229;28;20396;-81
2022/03/10 04:59:10;;;;;;;52.08;35.88;;;;;;;;;;4978519;28;20397;-82
2022/03/10 05:01:36;;;;;;;52.73;37.47;;;;;;;;;;4978356;28;20377;-82
2022/03/10 05:04:02;;;;;;;47.05;35.65;;;;;;;;;;4978048;28;20385;-82
2022/03/10 05:06:28;;;;;;;50.40;37.08;;;;;;;;;;4996950;28;20417;-82
2022/03/10 05:08:54;;;;;;;55.30;37.13;;;;;;;;;;4978061;28;20527;-81
2022/03/10 05:11:20;;;;;;;53.03;37.55;;;;;;;;;;4996514;28;20396;-82
2022/03/10 05:13:46;;;;;;;54.65;38.30;;;;;;;;;;4979017;28;20413;-82
2022/03/10 05:16:12;;;;;;;52.47;37.60;;;;;;;;;;4978396;28;20392;-81
2022/03/10 05:18:38;;;;;;;51.50;37.47;;;;;;;;;;4977853;28;20867;-81
2022/03/10 05:21:04;;;;;;;52.05;38.67;;;;;;;;;;4996558;28;20392;-80
2022/03/10 05:23:30;;;;;;;51.95;38.70;;;;;;;;;;4978701;28;20413;-81
2022/03/10 05:25:56;;;;;;;55.13;38.33;;;;;;;;;;4992102;28;20444;-82
2022/03/10 05:28:22;;;;;;;50.30;37.25;;;;;;;;;;4992580;28;20883;-81
2022/03/10 05:30:48;;;;;;;55.67;39.28;;;;;;;;;;4975330;28;20387;-81
2022/03/10 05:33:15;;;;;;;51.07;36.70;;;;;;;;;;4974795;28;20902;-81
2022/03/10 05:35:41;;;;;;;48.80;36.53;;;;;;;;;;4956567;28;20889;-81
2022/03/10 05:38:07;;;;;;;52.47;37.28;;;;;;;;;;4972969;28;20387;-81
2022/03/10 05:40:33;;;;;;;48.95;36.45;;;;;;;;;;4992917;28;20890;-81
2022/03/10 05:42:59;;;;;;;52.85;37.42;;;;;;;;;;4994107;28;20395;-81
2022/03/10 05:45:25;;;;;;;55.67;36.38;;;;;;;;;;4994368;28;20554;-81
2022/03/10 05:47:57;;;;;;;59.40;36.40;;;;;;;;;;4977810;28;20391;-81
2022/03/10 05:50:23;;;;;;;48.05;35.95;;;;;;;;;;4993830;28;20451;-82
2022/03/10 05:52:50;;;;;;;47.08;35.80;;;;;;;;;;4977034;28;20713;-82
2022/03/10 05:55:17;;;;;;;52.00;37.58;;;;;;;;;;4994771;28;20417;-82
2022/03/10 05:57:43;;;;;;;50.30;36.92;;;;;;;;;;4977199;28;20397;-80
2022/03/10 06:00:10;;;;;;;50.23;35.50;;;;;;;;;;4999372;28;20384;-81
2022/03/10 06:02:36;;;;;;;49.63;36.92;;;;;;;;;;4973148;28;20483;-81
2022/03/10 06:05:03;;;;;;;53.90;39.22;;;;;;;;;;4997298;28;20412;-82
2022/03/10 06:07:29;;;;;;;46.45;36.00;;;;;;;;;;4997741;28;20377;-81
2022/03/10 06:09:56;;;;;;;68.80;38.33;;;;;;;;;;4998828;28;20491;-82
2022/03/10 06:12:23;;;;;;;58.80;36.83;;;;;;;;;;4999360;28;20379;-82
2022/03/10 06:14:49;;;;;;;60.30;37.60;;;;;;;;;;4981552;28;20420;-82
2022/03/10 06:17:15;;;;;;;50.85;35.90;;;;;;;;;;4981666;28;20423;-81
2022/03/10 06:19:41;;;;;;;51.70;37.03;;;;;;;;;;5002237;28;20385;-82
2022/03/10 06:22:07;;;;;;;43.67;34.05;;;;;;;;;;4983396;28;20392;-81
2022/03/10 06:24:34;;;;;;;56.20;33.80;;;;;;;;;;4977915;28;20385;-82
2022/03/10 06:27:00;;;;;;;46.42;33.70;;;;;;;;;;4995282;28;20941;-81
2022/03/10 06:29:25;;;;;;;43.95;32.35;;;-0.70;99.90;;;;;;4995672;28;20385;-81
2022/03/10 06:31:52;;;;;;;42.78;31.08;;;-0.70;99.90;;;;;;4978387;28;20926;-81
2022/03/10 06:34:20;;;;;;;43.72;32.22;;;-0.70;99.90;;;;;;4973711;28;20408;-82
2022/03/10 06:36:48;;;;;;;34.67;28.25;;;;;;;;;;4980508;28;20419;-81
2022/03/10 06:39:14;;;;;;;41.22;32.40;;;;;;;;;;4979035;28;20432;-82
2022/03/10 06:41:40;;;;;;;42.33;32.97;;;0.20;99.90;;;;;;4977517;28;20389;-82
2022/03/10 06:44:06;;;;;;;53.60;37.85;;;0.10;99.90;;;;;;4992917;28;20568;-81
2022/03/10 06:46:32;;;;;;;49.70;37.53;;;0.40;99.90;;;;;;4994027;28;20400;-81
2022/03/10 06:48:57;;;;;;;47.20;35.95;;;0.50;99.90;;;;;;4992967;28;20791;-81
2022/03/10 06:51:23;;;;;;;48.87;35.97;;;0.80;99.90;;;;;;4992125;28;20385;-81
2022/03/10 06:53:49;;;;;;;45.42;33.92;;;1.00;99.90;;;;;;4993680;28;20385;-82
2022/03/10 06:56:14;;;;;;;42.15;33.17;;;1.20;99.90;;;;;;4993953;28;20642;-81
2022/03/10 06:58:40;;;;;;;38.53;30.40;;;1.40;99.90;;;;;;4994268;28;20883;-81
2022/03/10 07:01:05;;;;;;;41.20;30.93;;;1.50;99.90;;;;;;4994145;28;20507;-81
2022/03/10 07:03:31;;;;;;;39.43;28.87;;;1.70;99.90;;;;;;4993602;28;20400;-81
2022/03/10 07:05:58;;;;;;;38.23;29.53;;;2.00;99.90;;;;;;4976158;28;20503;-80
2022/03/10 07:08:24;;;;;;;36.88;29.40;;;2.20;99.90;;;;;;4976205;28;20400;-80
2022/03/10 07:10:50;;;;;;;38.87;30.27;;;2.40;99.90;;;;;;4994123;28;20381;-81
2022/03/10 07:13:15;;;;;;;40.03;29.57;;;2.50;99.90;;;;;;4976189;28;20408;-81
2022/03/10 07:15:41;;;;;;;39.65;28.55;;;2.70;99.90;;;;;;4992803;28;20384;-81
2022/03/10 07:18:06;;;;;;;37.53;28.67;;;2.80;99.90;;;;;;4993510;28;20421;-81
2022/03/10 07:20:32;;;;;;;40.63;29.43;;;3.00;99.90;;;;;;4976562;28;20898;-81
2022/03/10 07:22:58;;;;;;;37.60;29.07;;;3.20;99.90;;;;;;4993345;28;20751;-82
2022/03/10 07:25:24;;;;;;;38.80;29.60;;;3.40;99.90;;;;;;4975975;28;20400;-83
2022/03/10 07:27:49;;;;;;;47.70;31.80;;;3.60;99.90;;;;;;4993889;28;20377;-82
2022/03/10 07:30:15;;;;;;;36.13;29.63;;;3.70;99.90;;;;;;4995125;28;20798;-83
2022/03/10 07:32:40;;;;;;;35.92;28.88;;;3.80;99.90;;;;;;4993556;28;20419;-82
2022/03/10 07:35:06;;;;;;;37.78;29.27;;;4.20;99.90;;;;;;4978318;28;20393;-82
2022/03/10 07:37:33;;;;;;;38.65;28.85;;;;;;;;;;4982868;28;20436;-83
2022/03/10 07:39:59;;;;;;;38.17;28.38;;;4.30;99.90;;;;;;4992033;28;20447;-84
2022/03/10 07:42:24;;;;;;;37.30;30.38;;;4.40;99.90;;;;;;4993268;28;20389;-84
2022/03/10 07:44:50;;;;;;;40.20;28.93;;;4.50;99.90;;;;;;4994073;28;20381;-82
2022/03/10 07:47:15;;;;;;;36.77;28.30;;;4.60;99.90;;;;;;4994234;28;20431;-83
2022/03/10 07:49:41;;;;;;;42.42;29.20;;;4.80;99.90;;;;;;4994478;28;20396;-83
2022/03/10 07:52:07;;;;;;;40.22;29.50;;;4.90;99.90;;;;;;4975992;28;20389;-85
2022/03/10 07:54:33;;;;;;;37.50;29.30;;;5.00;99.90;;;;;;4993686;28;20743;-83
2022/03/10 07:56:59;;;;;;;42.72;30.13;;;5.30;99.90;;;;;;4976752;28;20384;-85
2022/03/10 07:59:24;;;;;;;38.90;28.55;;;5.40;99.90;;;;;;4992518;28;20500;-85
2022/03/10 08:01:50;;;;;;;43.70;29.53;;;5.50;99.90;;;;;;4993506;28;20389;-85
2022/03/10 08:04:16;;;;;;;38.30;29.10;;;5.70;99.90;;;;;;4993552;28;20468;-84
2022/03/10 08:06:42;;;;;;;41.87;29.70;;;5.70;99.90;;;;;;4975783;28;20496;-85
2022/03/10 08:09:10;;;;;;;38.63;29.63;;;5.90;99.90;;;;;;4967799;28;20473;-85
2022/03/10 08:11:39;;;;;;;39.95;28.80;;;6.00;99.90;;;;;;4975715;28;20439;-84
2022/03/10 08:14:06;;;;;;;38.67;29.30;;;6.10;99.90;;;;;;4993147;28;20384;-83
2022/03/10 08:16:32;;;;;;;39.58;29.67;;;6.20;99.90;;;;;;4975990;28;20385;-85
2022/03/10 08:18:59;;;;;;;40.88;28.67;;;6.30;99.90;;;;;;4992934;28;20420;-82
2022/03/10 08:21:25;;;;;;;41.03;29.10;;;6.30;99.90;;;;;;4992325;28;20397;-83
2022/03/10 08:23:51;;;;;;;39.83;28.95;;;6.40;99.90;;;;;;4993525;28;20391;-83
2022/03/10 08:26:17;;;;;;;40.40;28.67;;;6.50;99.90;;;;;;4991439;28;20405;-83
2022/03/10 08:28:45;;;;;;;38.00;27.98;;;6.70;99.90;;;;;;4975334;28;20420;-84
2022/03/10 08:31:10;;;;;;;40.27;29.30;;;7.00;99.90;;;;;;4992305;28;20408;-87
2022/03/10 08:33:37;;;;;;;39.07;29.17;;;7.10;99.90;;;;;;4992498;28;20731;-84
2022/03/10 08:36:05;;;;;;;40.13;28.90;;;7.10;99.90;;;;;;4992722;28;20389;-83
2022/03/10 08:38:32;;;;;;;38.53;27.90;;;7.20;99.90;;;;;;4992155;28;20732;-84
2022/03/10 08:40:59;;;;;;;34.90;27.20;;;7.30;99.90;;;;;;4992424;28;20384;-83
2022/03/10 08:43:28;;;;;;;38.45;27.48;;;7.40;99.90;;;;;;4975083;28;20401;-83
2022/03/10 08:45:57;;;;;;;36.20;28.20;;;7.50;99.90;;;;;;4975480;28;20417;-83
2022/03/10 08:48:23;;;;;;;37.50;27.48;;;7.40;99.90;;;;;;4992960;28;20380;-84
2022/03/10 08:50:49;;;;;;;38.28;27.90;;;7.50;99.90;;;;;;4993267;28;20381;-85
2022/03/10 08:53:14;;;;;;;37.57;26.77;;;7.60;99.90;;;;;;4992407;28;20738;-83
2022/03/10 08:55:40;;;;;;;34.90;26.77;;;7.50;99.90;;;;;;4992412;28;21014;-84
2022/03/10 08:58:06;;;;;;;37.55;28.00;;;7.70;99.90;;;;;;4974786;28;20393;-85
2022/03/10 09:00:32;;;;;;;34.63;26.15;;;7.70;99.90;;;;;;4975351;28;20716;-85
2022/03/10 09:02:58;;;;;;;38.45;27.50;;;7.90;99.90;;;;;;4975275;28;20752;-83
2022/03/10 09:05:24;;;;;;;44.03;28.35;;;7.80;99.90;;;;;;4974187;28;20833;-84
2022/03/10 09:07:50;;;;;;;35.85;26.77;;;7.90;99.90;;;;;;4991603;28;20492;-87
2022/03/10 09:10:16;;;;;;;35.17;25.88;;;8.10;99.90;;;;;;4977901;28;20719;-84
2022/03/10 09:12:41;;;;;;;37.00;26.38;;;8.30;99.90;;;;;;4974394;28;20449;-84
2022/03/10 09:15:08;;;;;;;35.63;27.00;;;8.40;99.90;;;;;;4992022;28;20381;-84
2022/03/10 09:17:34;;;;;;;35.33;25.48;;;8.50;99.90;;;;;;4993081;28;20380;-84
2022/03/10 09:20:00;;;;;;;36.65;26.42;;;8.60;99.90;;;;;;4992082;28;20394;-84
2022/03/10 09:22:26;;;;;;;38.38;26.38;;;8.60;99.90;;;;;;4976223;28;20468;-83
2022/03/10 09:24:52;;;;;;;32.55;25.55;;;8.50;99.90;;;;;;4974252;28;20466;-87
2022/03/10 09:27:18;;;;;;;34.80;24.77;;;8.40;99.90;;;;;;4994086;28;20522;-87
2022/03/10 09:29:44;;;;;;;32.47;24.57;;;8.50;99.90;;;;;;4995124;28;20388;-85
2022/03/10 09:32:09;;;;;;;32.77;24.33;;;8.40;99.90;;;;;;4994477;28;20732;-83
2022/03/10 09:34:35;;;;;;;30.97;22.97;;;8.70;99.90;;;;;;4995677;28;20894;-85
2022/03/10 09:37:01;;;;;;;34.72;23.92;;;9.20;99.90;;;;;;4994607;28;20396;-84
2022/03/10 09:39:27;;;;;;;58.08;25.38;;;9.00;99.90;;;;;;4994033;28;20871;-84
2022/03/10 09:41:55;;;;;;;33.40;23.55;;;9.40;99.90;;;;;;4973961;28;20392;-87
2022/03/10 09:44:21;;;;;;;35.35;24.25;;;9.80;99.90;;;;;;4974113;28;20396;-85
2022/03/10 09:46:50;;;;;;;34.08;24.77;;;9.40;99.90;;;;;;4972362;28;20416;-82
2022/03/10 09:49:19;;;;;;;29.70;22.23;;;9.40;99.90;;;;;;4991503;28;21576;-87
2022/03/10 09:51:48;;;;;;;31.27;24.30;;;9.30;99.90;;;;;;4974411;28;20401;-85
2022/03/10 09:54:14;;;;;;;34.13;23.98;;;9.20;99.90;;;;;;4991184;28;20384;-85
2022/03/10 09:56:42;;;;;;;33.22;23.48;;;8.90;99.90;;;;;;4992444;28;20389;-86
2022/03/10 09:59:09;;;;;;;31.90;23.48;;;8.90;99.90;;;;;;4992753;28;20400;-85
2022/03/10 10:01:35;;;;;;;35.15;23.95;;;8.90;99.90;;;;;;4992470;28;20404;-85
2022/03/10 10:04:01;;;;;;;28.17;21.75;;;8.90;99.90;;;;;;4975727;28;20436;-88
2022/03/10 10:06:26;;;;;;;30.50;21.87;;;9.00;99.90;;;;;;4992363;28;20423;-84
2022/03/10 10:08:56;;;;;;;33.47;21.20;;;9.10;99.90;;;;;;4992400;28;20389;-85
2022/03/10 10:11:35;;;;;;;26.50;19.00;;;9.30;99.90;;;;;;4975532;28;20389;-86
2022/03/10 10:14:01;;;;;;;28.52;20.83;;;9.30;99.90;;;;;;4975033;28;20388;-87
2022/03/10 10:16:27;;;;;;;28.23;19.00;;;9.10;99.90;;;;;;4992357;28;20389;-86
2022/03/10 10:18:58;;;;;;;40.05;21.00;;;9.20;99.90;;;;;;4963393;28;20497;-87
2022/03/10 10:21:25;;;;;;;27.25;20.40;;;9.40;99.90;;;;;;4974378;28;20747;-87
2022/03/10 10:23:53;;;;;;;24.23;17.42;;;9.30;99.90;;;;;;4989192;28;20471;-86
2022/03/10 10:26:20;;;;;;;26.80;17.52;;;9.40;99.90;;;;;;4992213;28;20411;-87
2022/03/10 10:28:49;;;;;;;24.10;16.95;;;9.30;99.90;;;;;;4975226;28;20397;-87
2022/03/10 10:31:16;;;;;;;24.23;15.98;;;9.50;99.90;;;;;;4973545;28;20949;-86
2022/03/10 10:34:00;;;;;;;25.48;17.52;;;9.60;99.90;;;;;;4975023;28;20409;-84
2022/03/10 10:36:30;;;;;;;27.75;17.90;;;9.60;99.90;;;;;;4991146;28;20385;-84
2022/03/10 10:39:17;;;;;;;26.00;18.58;;;9.70;99.90;;;;;;4991617;28;20392;-82
2022/03/10 10:41:45;;;;;;;25.25;18.65;;;9.70;99.90;;;;;;4973503;28;20397;-83
2022/03/10 10:44:23;;;;;;;27.08;18.33;;;9.50;99.90;;;;;;4990740;28;20401;-85
2022/03/10 10:46:55;;;;;;;24.83;17.80;;;9.40;99.90;;;;;;4987556;28;20421;-84
2022/03/10 10:49:25;;;;;;;24.73;17.77;;;9.20;99.90;;;;;;4987983;28;20471;-83
2022/03/10 10:51:55;;;;;;;26.48;17.65;;;9.40;99.90;;;;;;4989414;28;20381;-84
2022/03/10 10:54:21;;;;;;;28.05;17.38;;;9.60;99.90;;;;;;4988454;28;20404;-87
2022/03/10 10:56:48;;;;;;;23.30;16.47;;;9.60;99.90;;;;;;4990475;28;20380;-85
2022/03/10 10:59:34;;;;;;;22.45;15.85;;;9.70;99.90;;;;;;4973110;28;20468;-83
2022/03/10 11:02:09;;;;;;;24.83;16.40;;;9.80;99.90;;;;;;4986317;28;20385;-86
2022/03/10 11:04:36;;;;;;;28.38;16.15;;;9.80;99.90;;;;;;4972994;28;20440;-87
2022/03/10 11:07:03;;;;;;;28.90;17.77;;;10.00;99.90;;;;;;4972274;28;20468;-84
2022/03/10 11:09:31;;;;;;;30.00;17.38;;;10.00;99.90;;;;;;4989284;28;20384;-89
2022/03/10 11:11:57;;;;;;;35.57;17.83;;;10.20;99.90;;;;;;4970490;28;20380;-87
2022/03/10 11:14:23;;;;;;;24.92;15.82;;;10.40;99.90;;;;;;4972541;28;20400;-85
2022/03/10 11:16:49;;;;;;;25.70;18.45;;;10.50;99.90;;;;;;4971173;28;20475;-84
2022/03/10 11:19:25;;;;;;;37.25;20.23;;;10.60;99.90;;;;;;4989943;28;20779;-83
2022/03/10 11:22:23;;;;;;;24.48;18.02;;;10.40;99.90;;;;;;4990921;28;20393;-83
2022/03/10 11:25:07;;;;;;;28.30;18.52;;;10.40;99.90;;;;;;4991375;28;20385;-84
2022/03/10 11:27:44;;;;;;;24.83;18.98;;;10.20;99.90;;;;;;4990957;28;20946;-84
2022/03/10 11:30:10;;;;;;;29.27;20.23;;;10.40;99.90;;;;;;4991071;28;20528;-82
2022/03/10 11:32:36;;;;;;;39.05;21.45;;;10.40;99.90;;;;;;4989957;28;20452;-83
2022/03/10 11:35:03;;;;;;;23.42;19.00;;;10.30;99.90;;;;;;4972805;28;20424;-84
2022/03/10 11:37:41;;;;;;;24.27;19.10;;;10.10;99.90;;;;;;4971334;28;20902;-84
2022/03/10 11:40:13;;;;;;;26.30;19.53;;;9.80;99.90;;;;;;4966596;28;20779;-83
2022/03/10 11:42:40;;;;;;;27.70;20.30;;;9.60;99.90;;;;;;4971724;28;20409;-84
2022/03/10 11:45:12;;;;;;;27.67;19.48;;;9.60;99.90;;;;;;4990370;28;20400;-85
2022/03/10 11:47:39;;;;;;;45.80;22.80;;;9.70;99.90;;;;;;4990616;28;20388;-83
2022/03/10 11:50:23;;;;;;;24.27;19.17;;;9.70;99.90;;;;;;4973104;28;20457;-85
2022/03/10 11:52:58;;;;;;;24.58;19.35;;;9.80;99.90;;;;;;4969746;28;20403;-85
2022/03/10 11:55:38;;;;;;;22.95;17.83;;;9.90;99.90;;;;;;4989206;28;20385;-87
2022/03/10 11:58:06;;;;;;;38.28;19.60;;;10.00;99.90;;;;;;4990510;28;20392;-83
2022/03/10 12:00:41;;;;;;;21.53;18.77;;;10.20;99.90;;;;;;4973034;28;20385;-85
2022/03/10 12:03:17;;;;;;;27.33;21.60;;;10.10;99.90;;;;;;4959648;28;20429;-83
2022/03/10 12:05:53;;;;;;;25.67;20.67;;;9.70;99.90;;;;;;4972654;28;20412;-88
2022/03/10 12:08:20;;;;;;;30.43;21.23;;;9.70;99.90;;;;;;4986919;28;20385;-82
2022/03/10 12:10:47;;;;;;;23.50;18.93;;;9.60;99.90;;;;;;4971206;28;20436;-84
2022/03/10 12:13:38;;;;;;;21.83;19.02;;;9.60;99.90;;;;;;4969220;28;20759;-84
2022/03/10 12:16:06;;;;;;;24.63;19.58;;;9.70;99.90;;;;;;4972028;28;20414;-86
2022/03/10 12:18:44;;;;;;;26.55;21.23;;;9.60;99.90;;;;;;4968645;28;20405;-84
2022/03/10 12:21:17;;;;;;;24.10;19.88;;;9.50;99.90;;;;;;4988737;28;20911;-87
2022/03/10 12:24:04;;;;;;;28.05;20.88;;;9.40;99.90;;;;;;4988936;28;20400;-83
2022/03/10 12:26:35;;;;;;;25.02;20.77;;;9.40;99.90;;;;;;4983091;28;20917;-86
2022/03/10 12:29:04;;;;;;;22.85;19.58;;;9.30;99.90;;;;;;4990591;28;20400;-82
2022/03/10 12:31:33;;;;;;;26.58;20.33;;;9.30;99.90;;;;;;4973438;28;20388;-87
2022/03/10 12:34:01;;;;;;;24.33;18.60;;;9.20;99.90;;;;;;4972490;28;20393;-85
2022/03/10 12:36:35;;;;;;;21.45;17.83;;;9.10;99.90;;;;;;4988206;28;20439;-83
2022/03/10 12:39:07;;;;;;;22.17;18.13;;;9.20;99.90;;;;;;4972955;28;20407;-85
2022/03/10 12:41:37;;;;;;;25.27;17.85;;;9.10;99.90;;;;;;4989174;28;20384;-86
2022/03/10 12:44:05;;;;;;;20.27;16.88;;;9.10;99.90;;;;;;4988691;28;20397;-84
2022/03/10 12:46:33;;;;;;;19.67;16.17;;;9.20;99.90;;;;;;4972151;28;20421;-82
2022/03/10 12:48:58;;;;;;;18.40;16.42;;;9.20;99.90;;;;;;4980739;28;20438;-85
2022/03/10 12:51:28;;;;;;;76.83;20.07;;;9.10;99.90;;;;;;4969904;28;20509;-84
2022/03/10 12:53:54;;;;;;;20.38;15.65;;;9.30;99.90;;;;;;4970466;28;20471;-85
2022/03/10 12:56:21;;;;;;;24.30;16.73;;;9.30;99.90;;;;;;4988344;28;20482;-85
2022/03/10 12:58:48;;;;;;;21.77;16.30;;;9.30;99.90;;;;;;4994196;28;20397;-83
2022/03/10 13:01:14;;;;;;;17.73;15.77;;;9.20;99.90;;;;;;4970543;28;20403;-85
2022/03/10 13:03:49;;;;;;;38.63;16.70;;;9.20;99.90;;;;;;4988094;28;20381;-86
2022/03/10 13:06:19;;;;;;;27.05;16.58;;;9.20;99.90;;;;;;4984110;28;20411;-83
2022/03/10 13:08:52;;;;;;;19.48;16.52;;;9.30;99.90;;;;;;4970699;28;20401;-84
2022/03/10 13:11:22;;;;;;;20.77;16.42;;;9.20;99.90;;;;;;4988319;28;20530;-83
2022/03/10 13:14:08;;;;;;;17.92;15.05;;;9.30;99.90;;;;;;4971675;28;20389;-84
2022/03/10 13:16:39;;;;;;;17.92;14.98;;;9.30;99.90;;;;;;4987544;28;20396;-84
2022/03/10 13:19:06;;;;;;;22.23;15.02;;;9.40;99.90;;;;;;4968901;28;20455;-85